createdAt,value
2024-01-20T00:01:34.849Z,8.10
2024-01-20T00:04:03.421Z,8.10
2024-01-20T00:06:33.051Z,8.83
2024-01-20T00:09:01.216Z,9.23
2024-01-20T00:11:29.356Z,8.63
2024-01-20T00:13:57.491Z,8.57
2024-01-20T00:16:25.475Z,8.93
2024-01-20T00:18:53.395Z,9.13
2024-01-20T00:21:21.527Z,8.97
2024-01-20T00:23:50.812Z,8.40
2024-01-20T00:26:19.034Z,8.70
2024-01-20T00:28:47.114Z,8.40
2024-01-20T00:31:15.180Z,8.33
2024-01-20T00:33:43.190Z,9.07
2024-01-20T00:36:11.208Z,9.00
2024-01-20T00:38:40.268Z,9.33
2024-01-20T00:41:12.623Z,6.30
2024-01-20T00:43:40.521Z,6.20
2024-01-20T00:46:09.037Z,6.10
2024-01-20T00:48:37.028Z,6.17
2024-01-20T00:51:05.136Z,5.83
2024-01-20T00:53:32.996Z,6.27
2024-01-20T00:56:04.634Z,6.03
2024-01-20T00:58:33.732Z,5.83
2024-01-20T01:01:01.607Z,5.67
2024-01-20T01:03:43.950Z,5.10
2024-01-20T01:06:11.992Z,4.93
2024-01-20T01:08:40.344Z,7.27
2024-01-20T01:11:09.313Z,7.90
2024-01-20T01:13:40.413Z,9.50
2024-01-20T01:16:11.215Z,9.43
2024-01-20T01:18:39.077Z,9.03
2024-01-20T01:21:06.905Z,10.03
2024-01-20T01:23:34.773Z,12.27
2024-01-20T01:26:02.743Z,12.87
2024-01-20T01:28:30.499Z,12.83
2024-01-20T01:30:59.587Z,13.07
2024-01-20T01:33:27.366Z,13.13
2024-01-20T01:35:55.120Z,14.50
2024-01-20T01:38:22.944Z,16.30
2024-01-20T01:40:50.799Z,15.27
2024-01-20T01:43:18.603Z,15.33
2024-01-20T01:45:46.442Z,14.70
2024-01-20T01:48:15.882Z,14.33
2024-01-20T01:50:43.768Z,15.97
2024-01-20T01:53:13.464Z,19.77
2024-01-20T01:55:44.760Z,22.87
2024-01-20T01:58:12.655Z,22.60
2024-01-20T02:00:40.442Z,22.13
2024-01-20T02:03:11.067Z,17.77
2024-01-20T02:05:40.367Z,17.83
2024-01-20T02:08:09.092Z,20.20
2024-01-20T02:10:37.778Z,23.53
2024-01-20T02:13:08.832Z,23.07
2024-01-20T02:15:38.587Z,22.97
2024-01-20T02:18:06.606Z,23.00
2024-01-20T02:20:34.463Z,19.87
2024-01-20T02:23:03.806Z,19.57
2024-01-20T02:25:31.636Z,21.67
2024-01-20T02:27:59.422Z,22.97
2024-01-20T02:30:27.416Z,22.37
2024-01-20T02:32:55.346Z,23.43
2024-01-20T02:35:22.448Z,22.10
2024-01-20T02:37:50.262Z,20.17
2024-01-20T02:40:19.507Z,21.83
2024-01-20T02:42:47.240Z,24.53
2024-01-20T02:45:15.069Z,27.30
2024-01-20T02:47:42.938Z,27.97
2024-01-20T02:50:11.038Z,32.10
2024-01-20T02:52:38.771Z,30.77
2024-01-20T02:55:10.027Z,30.20
2024-01-20T02:57:39.198Z,31.87
2024-01-20T03:00:11.215Z,30.17
2024-01-20T03:02:39.041Z,29.80
2024-01-20T03:05:10.108Z,30.07
2024-01-20T03:07:37.954Z,30.20
2024-01-20T03:10:06.903Z,30.40
2024-01-20T03:12:34.953Z,29.43
2024-01-20T03:15:04.748Z,31.27
2024-01-20T03:17:32.660Z,31.40
2024-01-20T03:20:00.516Z,30.43
2024-01-20T03:22:28.337Z,32.97
2024-01-20T03:24:56.077Z,31.17
2024-01-20T03:27:23.948Z,32.63
2024-01-20T03:29:51.984Z,31.30
2024-01-20T03:32:21.081Z,33.20
2024-01-20T03:34:49.115Z,31.20
2024-01-20T03:37:16.894Z,31.67
2024-01-20T03:39:44.688Z,30.97
2024-01-20T03:42:12.613Z,30.40
2024-01-20T03:44:40.435Z,31.53
2024-01-20T03:47:08.640Z,30.80
2024-01-20T03:49:37.805Z,29.37
2024-01-20T03:52:06.001Z,28.70
2024-01-20T03:54:33.865Z,26.83
2024-01-20T03:57:01.720Z,28.83
2024-01-20T03:59:29.544Z,31.23
2024-01-20T04:01:57.260Z,34.17
2024-01-20T04:04:25.123Z,31.67
2024-01-20T04:06:54.892Z,32.80
2024-01-20T04:09:22.774Z,30.60
2024-01-20T04:11:50.778Z,31.10
2024-01-20T04:14:18.606Z,31.43
2024-01-20T04:16:46.297Z,30.53
2024-01-20T04:19:14.128Z,29.90
2024-01-20T04:21:43.920Z,31.10
2024-01-20T04:24:12.993Z,30.00
2024-01-20T04:26:40.853Z,30.03
2024-01-20T04:29:08.932Z,30.47
2024-01-20T04:31:36.651Z,28.93
2024-01-20T04:34:04.452Z,29.10
2024-01-20T04:36:32.151Z,29.10
2024-01-20T04:38:59.839Z,24.73
2024-01-20T04:41:28.950Z,14.90
2024-01-20T04:43:56.696Z,10.20
2024-01-20T04:46:24.486Z,5.20
2024-01-20T04:48:52.341Z,3.40
2024-01-20T04:51:23.315Z,5.77
2024-01-20T04:53:52.492Z,19.43
2024-01-20T04:56:21.766Z,23.77
2024-01-20T04:58:51.022Z,23.73
2024-01-20T05:01:18.905Z,24.00
2024-01-20T05:03:46.961Z,29.67
2024-01-20T05:06:15.389Z,30.40
2024-01-20T05:08:43.205Z,30.77
2024-01-20T05:11:11.467Z,30.83
2024-01-20T05:13:39.248Z,32.50
2024-01-20T05:16:08.921Z,35.27
2024-01-20T05:18:36.755Z,34.57
2024-01-20T05:21:04.798Z,35.00
2024-01-20T05:23:32.549Z,35.50
2024-01-20T05:26:00.428Z,36.70
2024-01-20T05:28:28.184Z,36.70
2024-01-20T05:30:55.959Z,37.47
2024-01-20T05:33:25.141Z,37.13
2024-01-20T05:35:53.003Z,36.20
2024-01-20T05:38:20.848Z,36.63
2024-01-20T05:40:48.622Z,37.20
2024-01-20T05:43:16.343Z,38.83
2024-01-20T05:45:44.187Z,38.57
2024-01-20T05:48:12.095Z,41.37
2024-01-20T05:50:41.370Z,39.93
2024-01-20T05:53:09.815Z,40.30
2024-01-20T05:55:37.603Z,42.80
2024-01-20T05:58:07.959Z,43.90
2024-01-20T06:00:35.727Z,42.23
2024-01-20T06:03:03.606Z,43.97
2024-01-20T06:05:32.650Z,46.10
2024-01-20T06:08:01.892Z,48.77
2024-01-20T06:10:29.721Z,46.00
2024-01-20T06:12:57.434Z,45.23
2024-01-20T06:15:25.188Z,45.63
2024-01-20T06:17:53.022Z,45.70
2024-01-20T06:20:20.834Z,43.43
2024-01-20T06:22:48.524Z,42.63
2024-01-20T06:25:17.616Z,44.43
2024-01-20T06:27:45.314Z,41.57
2024-01-20T06:30:14.175Z,43.10
2024-01-20T06:32:42.006Z,41.97
2024-01-20T06:35:15.715Z,42.63
2024-01-20T06:37:42.477Z,42.57
2024-01-20T06:40:10.911Z,41.90
2024-01-20T06:42:40.000Z,41.47
2024-01-20T06:45:10.983Z,42.73
2024-01-20T06:47:39.075Z,41.17
2024-01-20T06:50:09.646Z,40.23
2024-01-20T06:52:37.489Z,39.77
2024-01-20T06:55:06.835Z,39.10
2024-01-20T06:57:34.667Z,38.90
2024-01-20T07:00:04.987Z,39.50
2024-01-20T07:02:34.615Z,40.33
2024-01-20T07:05:03.431Z,38.70
2024-01-20T07:07:32.689Z,37.60
2024-01-20T07:10:00.535Z,39.40
2024-01-20T07:12:29.670Z,39.70
2024-01-20T07:14:58.589Z,40.57
2024-01-20T07:17:27.727Z,41.00
2024-01-20T07:19:55.592Z,39.03
2024-01-20T07:22:23.617Z,36.77
2024-01-20T07:24:51.522Z,37.73
2024-01-20T07:27:19.431Z,38.63
2024-01-20T07:29:47.184Z,36.43
2024-01-20T07:32:15.018Z,35.20
2024-01-20T07:34:44.150Z,35.20
2024-01-20T07:37:13.355Z,35.43
2024-01-20T07:39:41.232Z,34.40
2024-01-20T07:42:09.078Z,34.13
2024-01-20T07:44:36.814Z,33.93
2024-01-20T07:47:04.986Z,34.00
2024-01-20T07:49:33.212Z,32.57
2024-01-20T07:52:02.408Z,33.63
2024-01-20T07:54:30.260Z,32.07
2024-01-20T07:56:58.081Z,33.17
2024-01-20T07:59:25.844Z,32.13
2024-01-20T08:01:53.598Z,32.20
2024-01-20T08:04:21.512Z,30.37
2024-01-20T08:06:49.549Z,33.47
2024-01-20T08:09:18.990Z,33.07
2024-01-20T08:11:46.764Z,31.30
2024-01-20T08:14:14.989Z,30.93
2024-01-20T08:16:42.764Z,32.97
2024-01-20T08:19:10.703Z,31.87
2024-01-20T08:21:38.566Z,31.37
2024-01-20T08:24:07.744Z,32.30
2024-01-20T08:26:36.856Z,32.63
2024-01-20T08:29:04.657Z,31.57
2024-01-20T08:31:32.414Z,30.40
2024-01-20T08:34:00.438Z,31.47
2024-01-20T08:36:28.494Z,32.30
2024-01-20T08:38:56.376Z,31.57
2024-01-20T08:41:24.267Z,28.83
2024-01-20T08:43:53.951Z,28.83
2024-01-20T08:46:21.855Z,29.57
2024-01-20T08:48:49.614Z,30.37
2024-01-20T08:51:17.383Z,31.07
2024-01-20T08:53:45.172Z,30.50
2024-01-20T08:56:12.936Z,29.57
2024-01-20T08:58:40.775Z,28.10
2024-01-20T09:01:10.389Z,30.47
2024-01-20T09:03:38.474Z,29.30
2024-01-20T09:06:07.042Z,29.23
2024-01-20T09:08:35.443Z,29.50
2024-01-20T09:11:03.309Z,29.33
2024-01-20T09:13:31.138Z,28.53
2024-01-20T09:15:59.094Z,30.07
2024-01-20T09:18:28.522Z,31.00
2024-01-20T09:20:56.788Z,29.63
2024-01-20T09:23:24.669Z,30.00
2024-01-20T09:25:52.603Z,30.67
2024-01-20T09:28:20.409Z,29.23
2024-01-20T09:30:48.312Z,28.80
2024-01-20T09:33:16.576Z,29.13
2024-01-20T09:35:45.864Z,29.13
2024-01-20T09:38:13.821Z,28.57
2024-01-20T09:40:48.672Z,29.20
2024-01-20T09:43:17.294Z,29.70
2024-01-20T09:45:45.605Z,28.53
2024-01-20T09:48:15.852Z,30.00
2024-01-20T09:50:45.095Z,29.20
2024-01-20T09:53:16.067Z,29.20
2024-01-20T09:55:44.939Z,29.90
2024-01-20T09:58:13.645Z,30.60
2024-01-20T10:00:42.549Z,29.53
2024-01-20T10:03:12.474Z,28.83
2024-01-20T10:05:40.505Z,28.53
2024-01-20T10:08:13.666Z,29.03
2024-01-20T10:10:41.414Z,30.57
2024-01-20T10:13:09.137Z,31.20
2024-01-20T10:15:37.251Z,35.37
2024-01-20T10:18:11.929Z,28.80
2024-01-20T10:20:39.869Z,30.10
2024-01-20T10:23:09.529Z,30.33
2024-01-20T10:25:37.481Z,30.00
2024-01-20T10:28:05.751Z,30.63
2024-01-20T10:30:33.507Z,28.70
2024-01-20T10:35:32.096Z,28.03
2024-01-20T10:38:02.630Z,29.63
2024-01-20T10:40:31.719Z,31.67
2024-01-20T10:43:06.485Z,30.20
2024-01-20T10:45:43.691Z,31.30
2024-01-20T10:48:17.699Z,28.40
2024-01-20T10:50:47.958Z,30.57
2024-01-20T10:53:16.765Z,28.63
2024-01-20T10:55:47.527Z,29.13
2024-01-20T10:58:19.670Z,28.10
2024-01-20T11:00:48.159Z,27.47
2024-01-20T11:03:17.202Z,26.27
2024-01-20T11:05:48.725Z,27.17
2024-01-20T11:08:25.240Z,25.43
2024-01-20T11:10:56.285Z,26.03
2024-01-20T11:13:27.546Z,25.97
2024-01-20T11:15:58.770Z,24.97
2024-01-20T11:18:28.436Z,24.00
2024-01-20T11:21:00.249Z,24.33
2024-01-20T11:23:28.254Z,22.67
2024-01-20T11:25:58.233Z,22.77
2024-01-20T11:28:28.518Z,22.07
2024-01-20T11:30:56.318Z,20.60
2024-01-20T11:33:25.860Z,20.17
2024-01-20T11:35:54.349Z,19.17
2024-01-20T11:38:22.803Z,18.97
2024-01-20T11:41:01.950Z,17.77
2024-01-20T11:43:29.915Z,18.23
2024-01-20T11:45:58.545Z,17.20
2024-01-20T11:48:27.241Z,19.20
2024-01-20T11:50:55.262Z,17.70
2024-01-20T11:53:24.023Z,16.50
2024-01-20T11:55:56.258Z,16.77
2024-01-20T11:58:25.392Z,17.37
2024-01-20T12:00:53.879Z,18.80
2024-01-20T12:03:23.041Z,17.53
2024-01-20T12:05:51.636Z,16.33
2024-01-20T12:08:19.971Z,15.57
2024-01-20T12:10:48.191Z,15.37
2024-01-20T12:13:17.594Z,15.47
2024-01-20T12:15:49.479Z,15.20
2024-01-20T12:18:19.317Z,16.47
2024-01-20T12:20:47.489Z,16.03
2024-01-20T12:23:20.147Z,14.13
2024-01-20T12:25:48.388Z,14.07
2024-01-20T12:28:18.187Z,16.10
2024-01-20T12:30:47.311Z,15.23
2024-01-20T12:33:15.323Z,14.50
2024-01-20T12:35:43.176Z,15.37
2024-01-20T12:38:10.953Z,14.97
2024-01-20T12:40:38.717Z,15.70
2024-01-20T12:43:06.555Z,14.63
2024-01-20T12:45:34.436Z,14.63
2024-01-20T12:48:03.699Z,14.77
2024-01-20T12:50:31.583Z,14.63
2024-01-20T12:52:59.510Z,13.73
2024-01-20T12:55:27.197Z,13.33
2024-01-20T12:57:54.940Z,13.77
2024-01-20T13:00:22.863Z,12.73
2024-01-20T13:02:50.735Z,13.60
2024-01-20T13:05:20.019Z,11.30
2024-01-20T13:07:47.942Z,12.57
2024-01-20T13:10:15.853Z,13.90
2024-01-20T13:12:43.694Z,13.40
2024-01-20T13:15:11.947Z,13.80
2024-01-20T13:17:39.970Z,12.67
2024-01-20T13:20:10.578Z,12.53
2024-01-20T13:22:39.712Z,12.60
2024-01-20T13:25:13.385Z,13.80
2024-01-20T13:27:41.171Z,12.73
2024-01-20T13:30:11.379Z,12.37
2024-01-20T13:32:39.232Z,12.63
2024-01-20T13:35:11.088Z,10.93
2024-01-20T13:37:40.186Z,11.93
2024-01-20T13:40:10.670Z,11.80
2024-01-20T13:42:40.776Z,12.63
2024-01-20T13:45:11.172Z,12.60
2024-01-20T13:47:39.184Z,12.07
2024-01-20T13:50:08.017Z,12.30
2024-01-20T13:52:35.882Z,12.63
2024-01-20T13:55:06.770Z,14.80
2024-01-20T13:57:34.785Z,19.13
2024-01-20T14:00:02.677Z,19.30
2024-01-20T14:02:30.560Z,21.03
2024-01-20T14:04:58.817Z,23.13
2024-01-20T14:07:26.769Z,23.70
2024-01-20T14:09:54.557Z,24.63
2024-01-20T14:12:23.732Z,23.77
2024-01-20T14:14:51.596Z,23.60
2024-01-20T14:17:19.377Z,24.97
2024-01-20T14:19:47.262Z,23.73
2024-01-20T14:22:15.799Z,22.73
2024-01-20T14:24:43.667Z,22.80
2024-01-20T14:27:11.476Z,23.00
2024-01-20T14:29:40.632Z,23.17
2024-01-20T14:32:11.188Z,21.37
2024-01-20T14:34:38.935Z,21.27
2024-01-20T14:37:08.125Z,19.77
2024-01-20T14:39:36.457Z,21.17
2024-01-20T14:42:04.671Z,19.90
2024-01-20T14:44:32.488Z,19.93
2024-01-20T14:47:01.622Z,18.93
2024-01-20T14:49:29.438Z,18.70
2024-01-20T14:51:57.321Z,18.67
2024-01-20T14:54:26.604Z,17.97
2024-01-20T14:56:54.541Z,17.47
2024-01-20T14:59:22.400Z,17.00
2024-01-20T15:01:50.169Z,17.30
2024-01-20T15:04:19.429Z,16.47
2024-01-20T15:06:47.313Z,16.87
2024-01-20T15:09:15.249Z,16.03
2024-01-20T15:11:43.101Z,15.03
2024-01-20T15:14:10.878Z,14.23
2024-01-20T15:16:38.599Z,15.57
2024-01-20T15:19:07.082Z,14.63
2024-01-20T15:21:37.472Z,15.60
2024-01-20T15:24:08.768Z,15.43
2024-01-20T15:26:37.694Z,14.97
2024-01-20T15:29:05.881Z,15.13
2024-01-20T15:31:33.611Z,13.50
2024-01-20T15:34:01.658Z,14.07
2024-01-20T15:36:29.611Z,14.30
2024-01-20T15:38:58.811Z,14.03
2024-01-20T15:41:27.803Z,14.27
2024-01-20T15:43:55.596Z,13.83
2024-01-20T15:46:23.498Z,13.53
2024-01-20T15:48:51.800Z,13.07
2024-01-20T15:51:19.997Z,13.87
2024-01-20T15:53:47.790Z,13.57
2024-01-20T15:56:18.593Z,14.20
2024-01-20T15:58:47.131Z,12.93
2024-01-20T16:01:15.093Z,13.53
2024-01-20T16:03:43.068Z,13.73
2024-01-20T16:06:11.528Z,13.87
2024-01-20T16:08:39.273Z,14.37
2024-01-20T16:11:09.984Z,14.20
2024-01-20T16:13:39.150Z,13.23
2024-01-20T16:16:07.890Z,13.57
2024-01-20T16:18:36.503Z,14.13
2024-01-20T16:21:04.953Z,13.40
2024-01-20T16:23:32.835Z,13.67
2024-01-20T16:26:00.589Z,14.00
2024-01-20T16:28:30.340Z,14.17
2024-01-20T16:31:01.272Z,13.53
2024-01-20T16:33:29.352Z,14.20
2024-01-20T16:35:57.124Z,13.07
2024-01-20T16:38:24.876Z,14.50
2024-01-20T16:40:53.099Z,14.60
2024-01-20T16:43:20.801Z,13.73
2024-01-20T16:45:48.584Z,14.17
2024-01-20T16:48:18.769Z,14.83
2024-01-20T16:50:46.634Z,14.73
2024-01-20T16:53:16.030Z,14.30
2024-01-20T16:55:43.929Z,15.60
2024-01-20T16:58:11.743Z,15.37
2024-01-20T17:00:39.521Z,13.43
2024-01-20T17:03:07.890Z,14.67
2024-01-20T17:05:37.062Z,15.40
2024-01-20T17:08:05.533Z,15.13
2024-01-20T17:10:33.276Z,14.70
2024-01-20T17:13:01.498Z,15.30
2024-01-20T17:15:29.296Z,13.67
2024-01-20T17:17:57.103Z,15.93
2024-01-20T17:20:24.863Z,16.40
2024-01-20T17:22:55.748Z,14.40
2024-01-20T17:25:25.397Z,14.20
2024-01-20T17:27:53.100Z,15.57
2024-01-20T17:30:20.914Z,15.33
2024-01-20T17:32:49.313Z,14.60
2024-01-20T17:35:17.343Z,14.47
2024-01-20T17:37:45.055Z,14.20
2024-01-20T17:40:16.263Z,14.57
2024-01-20T17:42:44.586Z,14.63
2024-01-20T17:45:12.531Z,15.57
2024-01-20T17:47:44.585Z,16.20
2024-01-20T17:50:12.957Z,15.70
2024-01-20T17:52:40.768Z,15.43
2024-01-20T17:55:14.514Z,14.70
2024-01-20T17:57:42.376Z,14.17
2024-01-20T18:00:13.233Z,13.97
2024-01-20T18:02:42.091Z,14.37
2024-01-20T18:05:10.483Z,15.17
2024-01-20T18:07:38.417Z,14.93
2024-01-20T18:10:10.457Z,14.80
2024-01-20T18:12:42.690Z,13.77
2024-01-20T18:15:11.214Z,13.87
2024-01-20T18:17:39.106Z,15.17
2024-01-20T18:20:11.710Z,14.67
2024-01-20T18:22:39.616Z,13.70
2024-01-20T18:25:08.642Z,15.67
2024-01-20T18:27:36.490Z,15.17
2024-01-20T18:30:09.996Z,15.63
2024-01-20T18:32:37.913Z,16.57
2024-01-20T18:35:06.472Z,16.03
2024-01-20T18:37:34.195Z,15.77
2024-01-20T18:40:01.937Z,16.53
2024-01-20T18:42:31.301Z,16.40
2024-01-20T18:44:59.344Z,16.17
2024-01-20T18:47:28.465Z,15.63
2024-01-20T18:49:56.357Z,14.80
2024-01-20T18:52:24.133Z,15.77
2024-01-20T18:54:54.934Z,15.73
2024-01-20T18:57:23.389Z,15.20
2024-01-20T18:59:51.229Z,15.00
2024-01-20T19:02:19.130Z,16.27
2024-01-20T19:04:48.461Z,16.00
2024-01-20T19:07:16.614Z,15.37
2024-01-20T19:09:44.492Z,15.13
2024-01-20T19:12:14.520Z,14.37
2024-01-20T19:14:42.451Z,14.77
2024-01-20T19:17:16.060Z,14.53
2024-01-20T19:19:44.595Z,13.70
2024-01-20T19:22:13.870Z,14.20
2024-01-20T19:24:41.783Z,14.80
2024-01-20T19:27:12.495Z,14.70
2024-01-20T19:29:41.121Z,15.23
2024-01-20T19:32:09.710Z,15.07
2024-01-20T19:34:37.639Z,14.83
2024-01-20T19:37:05.979Z,15.60
2024-01-20T19:39:35.284Z,13.87
2024-01-20T19:42:03.027Z,14.17
2024-01-20T19:44:30.882Z,14.23
2024-01-20T19:46:58.581Z,14.23
2024-01-20T19:49:26.595Z,14.93
2024-01-20T19:51:54.403Z,14.17
2024-01-20T19:54:22.545Z,14.27
2024-01-20T19:56:53.498Z,14.20
2024-01-20T19:59:21.865Z,14.03
2024-01-20T20:01:50.325Z,13.57
2024-01-20T20:04:19.364Z,13.17
2024-01-20T20:06:47.956Z,13.80
2024-01-20T20:09:17.400Z,13.37
2024-01-20T20:11:45.513Z,12.63
2024-01-20T20:14:18.385Z,12.97
2024-01-20T20:16:46.143Z,12.80
2024-01-20T20:19:14.148Z,12.43
2024-01-20T20:21:42.270Z,12.57
2024-01-20T20:24:14.636Z,12.03
2024-01-20T20:26:43.949Z,12.93
2024-01-20T20:29:14.312Z,12.40
2024-01-20T20:31:42.372Z,12.03
2024-01-20T20:34:15.024Z,12.60
2024-01-20T20:36:42.884Z,11.67
2024-01-20T20:39:10.690Z,12.53
2024-01-20T20:41:38.640Z,12.00
2024-01-20T20:44:06.655Z,11.30
2024-01-20T20:46:35.954Z,11.70
2024-01-20T20:49:04.026Z,11.87
2024-01-20T20:51:31.993Z,10.93
2024-01-20T20:53:59.780Z,11.33
2024-01-20T20:56:27.518Z,11.40
2024-01-20T20:58:55.384Z,11.27
2024-01-20T21:01:23.184Z,10.70
2024-01-20T21:03:52.453Z,10.43
2024-01-20T21:06:20.367Z,11.77
2024-01-20T21:08:48.189Z,10.70
2024-01-20T21:11:15.968Z,10.93
2024-01-20T21:13:43.695Z,12.03
2024-01-20T21:16:11.608Z,11.77
2024-01-20T21:18:40.742Z,11.73
2024-01-20T21:21:10.493Z,12.17
2024-01-20T21:23:38.261Z,12.40
2024-01-20T21:26:08.405Z,12.00
2024-01-20T21:28:36.193Z,12.77
2024-01-20T21:31:04.386Z,12.00
2024-01-20T21:33:32.258Z,12.47
2024-01-20T21:36:00.820Z,12.20
2024-01-20T21:38:29.960Z,12.37
2024-01-20T21:40:57.847Z,11.50
2024-01-20T21:43:25.545Z,12.37
2024-01-20T21:45:53.329Z,12.33
2024-01-20T21:48:21.697Z,11.93
2024-01-20T21:50:49.639Z,12.23
2024-01-20T21:53:18.706Z,12.40
2024-01-20T21:55:47.870Z,12.50
2024-01-20T21:58:15.718Z,11.33
2024-01-20T22:00:43.873Z,12.30
2024-01-20T22:03:11.921Z,12.13
2024-01-20T22:05:39.967Z,12.97
2024-01-20T22:08:08.921Z,12.37
2024-01-20T22:10:36.702Z,12.57
2024-01-20T22:13:06.017Z,12.87
2024-01-20T22:15:34.039Z,12.23
2024-01-20T22:18:02.891Z,13.07
2024-01-20T22:20:32.217Z,14.50
2024-01-20T22:23:00.199Z,13.40
2024-01-20T22:25:28.026Z,13.10
2024-01-20T22:27:56.516Z,14.10
2024-01-20T22:30:25.847Z,13.83
2024-01-20T22:32:53.750Z,13.97
2024-01-20T22:35:21.598Z,12.77
2024-01-20T22:37:49.733Z,14.30
2024-01-20T22:40:18.004Z,15.03
2024-01-20T22:42:45.816Z,14.17
2024-01-20T22:45:17.402Z,14.50
2024-01-20T22:47:48.470Z,16.17
2024-01-20T22:50:16.406Z,14.83
2024-01-20T22:52:44.185Z,15.20
2024-01-20T22:55:12.537Z,14.60
2024-01-20T22:57:40.788Z,15.07
2024-01-20T23:00:14.033Z,15.17
2024-01-20T23:02:42.317Z,14.97
2024-01-20T23:05:11.973Z,14.97
2024-01-20T23:07:39.077Z,15.60
2024-01-20T23:10:09.114Z,14.97
2024-01-20T23:12:37.586Z,15.13
2024-01-20T23:15:06.538Z,15.03
2024-01-20T23:17:34.682Z,15.67
2024-01-20T23:20:03.109Z,16.23
2024-01-20T23:22:32.547Z,16.03
2024-01-20T23:25:00.311Z,15.20
2024-01-20T23:27:28.120Z,14.87
2024-01-20T23:29:55.851Z,15.17
2024-01-20T23:32:23.555Z,14.20
2024-01-20T23:34:51.352Z,14.87
2024-01-20T23:37:19.088Z,14.67
2024-01-20T23:39:48.312Z,15.10
2024-01-20T23:42:16.180Z,14.47
2024-01-20T23:44:44.011Z,14.20
2024-01-20T23:47:11.999Z,13.87
2024-01-20T23:49:39.947Z,13.27
2024-01-20T23:52:08.127Z,14.60
2024-01-20T23:54:35.964Z,13.00
2024-01-20T23:57:05.647Z,12.67
2024-01-20T23:59:33.471Z,12.23
